Lake Hamilton, Florida
Current Conditions -  °F | °C
As of 2:53 AM on Tuesday 27 Jan 2015 (Local Time) from KGIF Reporting Station
Clear Clear  
Wind Chill: 44°   Ceiling: Unl
Heat Index: 48°   Visibility: 10mi
Dew Point: 39°   Wind: 9mph
Humidity: 71%   Direction: 290°WNW
Pressure: 30"   Gusts: NA
Location:  28.04°N, 81.63°W
Report Text: KGIF 270753Z AUTO 29008KT 10SM CLR 09/04 A3000 RMK AO2 SLP159 T00890039
Loading
Personal Weather Stations






























Interactive Weather Map New forecast layout! Learn more

10-Day Weather Forecast

Advertisements
Track Severe Weather on mobile